Warner Robins, Georgia
Current Conditions -  °F | °C
As of 8:58 AM on Friday 28 Nov 2014 (Local Time) from KWRB Reporting Station
Clear Clear  
Wind Chill: 29°   Ceiling: Unl
Heat Index: 35°   Visibility: 10mi
Dew Point: 26°   Wind: 6mph
Humidity: 72%   Direction: 360°N
Pressure: 30.42"   Gusts: NA
Location:  32.62°N, 83.61°W
Report Text: KWRB 281358Z AUTO 36005KT 10SM CLR 01/M03 A3042 RMK AO2 SLP306 T00141031
Loading
Personal Weather Stations






























Interactive Weather Map New forecast layout! Learn more

10-Day Weather Forecast

Advertisements
Track Severe Weather on mobile